createdAt,value
2022-10-29T00:01:28.370Z,0.30
2022-10-29T00:03:55.802Z,1.95
2022-10-29T00:06:23.550Z,2.58
2022-10-29T00:08:50.990Z,0.60
2022-10-29T00:11:21.350Z,2.00
2022-10-29T00:13:53.982Z,3.00
2022-10-29T00:16:24.471Z,0.73
2022-10-29T00:18:52.296Z,1.47
2022-10-29T00:21:23.184Z,0.75
2022-10-29T00:23:51.822Z,0.90
2022-10-29T00:26:21.750Z,0.40
2022-10-29T00:28:52.281Z,1.58
2022-10-29T00:31:20.384Z,2.03
2022-10-29T00:33:48.188Z,0.60
2022-10-29T00:36:21.595Z,1.45
2022-10-29T00:38:51.759Z,1.10
2022-10-29T00:41:23.373Z,1.98
2022-10-29T00:46:30.808Z,1.88
2022-10-29T00:48:59.121Z,0.98
2022-10-29T00:51:30.247Z,2.50
2022-10-29T00:54:03.281Z,0.47
2022-10-29T00:56:35.682Z,3.03
2022-10-29T00:59:03.831Z,0.40
2022-10-29T01:01:31.960Z,0.47
2022-10-29T01:04:02.777Z,1.38
2022-10-29T01:06:31.483Z,1.13
2022-10-29T01:08:59.098Z,0.95
2022-10-29T01:11:45.464Z,1.70
2022-10-29T01:14:34.283Z,0.57
2022-10-29T01:17:11.325Z,1.55
2022-10-29T01:19:53.014Z,1.13
2022-10-29T01:22:44.392Z,0.60
2022-10-29T01:25:32.767Z,1.67
2022-10-29T01:28:13.936Z,0.65
2022-10-29T01:31:13.954Z,1.27
2022-10-29T01:34:20.571Z,1.20
2022-10-29T01:36:50.949Z,0.60
2022-10-29T01:39:27.452Z,0.52
2022-10-29T01:42:02.332Z,0.38
2022-10-29T01:44:42.714Z,2.15
2022-10-29T01:47:19.229Z,0.63
2022-10-29T01:49:51.550Z,0.52
2022-10-29T01:52:21.962Z,1.40
2022-10-29T01:54:49.496Z,1.27
2022-10-29T01:57:43.055Z,0.98
2022-10-29T02:00:14.749Z,0.95
2022-10-29T02:03:00.852Z,2.78
2022-10-29T02:05:34.908Z,0.68
2022-10-29T02:08:14.082Z,0.35
2022-10-29T02:10:55.573Z,1.00
2022-10-29T02:13:30.638Z,1.95
2022-10-29T02:16:00.327Z,1.40
2022-10-29T02:18:27.739Z,0.77
2022-10-29T02:20:55.559Z,1.27
2022-10-29T02:23:22.944Z,0.73
2022-10-29T02:25:50.435Z,0.85
2022-10-29T02:28:18.002Z,1.05
2022-10-29T02:30:45.399Z,0.38
2022-10-29T02:33:15.412Z,0.65
2022-10-29T02:35:42.795Z,0.52
2022-10-29T02:38:10.066Z,1.17
2022-10-29T02:40:37.404Z,0.75
2022-10-29T02:43:04.730Z,0.85
2022-10-29T02:45:32.254Z,1.13
2022-10-29T02:47:59.984Z,0.45
2022-10-29T02:50:27.426Z,0.57
2022-10-29T02:52:54.781Z,1.17
2022-10-29T02:55:22.116Z,0.60
2022-10-29T02:57:49.673Z,1.55
2022-10-29T03:00:17.325Z,0.52
2022-10-29T03:02:44.860Z,1.52
2022-10-29T03:05:12.361Z,1.75
2022-10-29T03:07:39.710Z,1.50
2022-10-29T03:10:08.149Z,1.40
2022-10-29T03:12:35.955Z,1.35
2022-10-29T03:15:03.443Z,0.50
2022-10-29T03:17:30.818Z,0.77
2022-10-29T03:19:58.172Z,0.90
2022-10-29T03:22:25.496Z,0.77
2022-10-29T03:24:52.827Z,0.45
2022-10-29T03:27:20.427Z,0.65
2022-10-29T03:29:47.922Z,1.02
2022-10-29T03:32:15.348Z,0.68
2022-10-29T03:34:42.844Z,0.63
2022-10-29T03:37:10.298Z,0.55
2022-10-29T03:39:37.636Z,1.00
2022-10-29T03:42:05.254Z,0.73
2022-10-29T03:44:32.647Z,2.45
2022-10-29T03:47:00.101Z,0.63
2022-10-29T03:49:28.842Z,0.25
2022-10-29T03:51:59.848Z,0.17
2022-10-29T03:54:33.394Z,0.52
2022-10-29T03:57:00.984Z,0.30
2022-10-29T03:59:28.518Z,0.57
2022-10-29T04:02:02.172Z,1.00
2022-10-29T04:04:30.026Z,1.60
2022-10-29T04:06:57.368Z,0.82
2022-10-29T04:09:25.108Z,0.55
2022-10-29T04:11:53.588Z,0.40
2022-10-29T04:14:22.121Z,0.98
2022-10-29T04:16:50.051Z,0.30
2022-10-29T04:19:17.958Z,1.98
2022-10-29T04:26:34.677Z,0.90
2022-10-29T04:30:10.414Z,1.13
2022-10-29T04:32:38.448Z,0.73
2022-10-29T04:35:06.798Z,0.77
2022-10-29T04:37:36.871Z,1.27
2022-10-29T04:40:04.688Z,0.95
2022-10-29T04:42:39.636Z,1.65
2022-10-29T04:45:10.907Z,0.63
2022-10-29T04:47:40.856Z,1.90
2022-10-29T04:50:08.662Z,0.63
2022-10-29T04:52:36.253Z,1.23
2022-10-29T04:55:03.746Z,0.70
2022-10-29T04:57:31.122Z,1.00
2022-10-29T04:59:58.632Z,0.57
2022-10-29T05:02:26.086Z,0.52
2022-10-29T05:04:53.860Z,0.85
2022-10-29T05:07:21.731Z,2.45
2022-10-29T05:09:49.325Z,0.57
2022-10-29T05:12:17.311Z,1.63
2022-10-29T05:14:44.853Z,0.70
2022-10-29T05:17:12.339Z,0.60
2022-10-29T05:19:46.280Z,1.60
2022-10-29T05:22:13.814Z,1.90
2022-10-29T05:24:42.105Z,0.50
2022-10-29T05:27:09.497Z,1.63
2022-10-29T05:29:36.963Z,2.40
2022-10-29T05:32:04.960Z,1.23
2022-10-29T05:34:32.385Z,1.25
2022-10-29T05:36:59.738Z,0.15
2022-10-29T05:39:27.457Z,1.13
2022-10-29T05:41:59.846Z,0.73
2022-10-29T05:44:27.368Z,0.35
2022-10-29T05:46:54.718Z,0.38
2022-10-29T05:49:22.188Z,1.65
2022-10-29T05:51:50.889Z,0.65
2022-10-29T05:54:19.034Z,0.55
2022-10-29T05:56:46.443Z,0.73
2022-10-29T05:59:14.013Z,0.40
2022-10-29T06:01:41.511Z,2.30
2022-10-29T06:04:09.082Z,0.43
2022-10-29T06:06:39.656Z,1.13
2022-10-29T06:09:08.144Z,1.77
2022-10-29T06:11:35.852Z,0.70
2022-10-29T06:14:03.191Z,1.00
2022-10-29T06:16:30.509Z,0.95
2022-10-29T06:18:57.781Z,1.77
2022-10-29T06:21:25.133Z,1.15
2022-10-29T06:23:52.420Z,0.52
2022-10-29T06:26:20.115Z,0.43
2022-10-29T06:28:48.179Z,1.70
2022-10-29T06:31:15.682Z,0.75
2022-10-29T06:33:43.065Z,0.17
2022-10-29T06:36:10.728Z,2.53
2022-10-29T06:38:38.181Z,0.60
2022-10-29T06:41:05.993Z,0.52
2022-10-29T06:43:33.710Z,0.57
2022-10-29T06:46:01.288Z,0.52
2022-10-29T06:48:28.732Z,1.10
2022-10-29T06:50:58.629Z,1.02
2022-10-29T06:53:26.790Z,1.25
2022-10-29T06:55:54.214Z,1.27
2022-10-29T06:58:21.973Z,0.40
2022-10-29T07:00:49.449Z,1.75
2022-10-29T07:03:19.092Z,2.30
2022-10-29T07:05:47.502Z,0.80
2022-10-29T07:08:14.966Z,1.08
2022-10-29T07:10:42.611Z,2.33
2022-10-29T07:13:10.090Z,1.20
2022-10-29T07:15:37.525Z,2.17
2022-10-29T07:18:07.355Z,1.35
2022-10-29T07:20:37.588Z,1.13
2022-10-29T07:23:05.489Z,0.32
2022-10-29T07:25:33.939Z,2.80
2022-10-29T07:28:07.006Z,1.55
2022-10-29T07:30:34.865Z,0.68
2022-10-29T07:33:02.235Z,1.05
2022-10-29T07:35:29.759Z,1.05
2022-10-29T07:38:05.316Z,3.45
2022-10-29T07:40:39.733Z,0.70
2022-10-29T07:43:11.119Z,2.28
2022-10-29T07:48:06.939Z,2.28
2022-10-29T07:50:34.168Z,0.32
2022-10-29T07:53:04.028Z,2.88
2022-10-29T07:55:31.615Z,1.08
2022-10-29T07:58:00.438Z,1.63
2022-10-29T08:00:30.390Z,2.10
2022-10-29T08:02:58.293Z,1.17
2022-10-29T08:05:27.362Z,1.77
2022-10-29T08:07:55.614Z,1.25
2022-10-29T08:10:24.390Z,1.27
2022-10-29T08:12:57.755Z,1.27
2022-10-29T08:15:26.813Z,1.13
2022-10-29T08:17:54.364Z,1.13
2022-10-29T08:20:23.524Z,1.40
2022-10-29T08:22:50.813Z,0.82
2022-10-29T08:25:18.514Z,1.73
2022-10-29T08:27:46.267Z,0.38
2022-10-29T08:30:14.078Z,1.73
2022-10-29T08:32:47.339Z,2.95
2022-10-29T08:35:15.177Z,0.82
2022-10-29T08:37:43.608Z,0.80
2022-10-29T08:40:53.338Z,2.22
2022-10-29T08:43:32.716Z,0.63
2022-10-29T08:46:00.179Z,2.70
2022-10-29T08:48:47.311Z,1.73
2022-10-29T08:51:21.978Z,2.50
2022-10-29T08:54:17.058Z,3.30
2022-10-29T08:56:44.272Z,2.97
2022-10-29T08:59:18.259Z,1.27
2022-10-29T09:01:46.288Z,0.98
2022-10-29T09:04:34.628Z,0.47
2022-10-29T09:07:26.001Z,2.47
2022-10-29T09:12:26.395Z,1.08
2022-10-29T09:15:24.559Z,1.42
2022-10-29T09:18:11.856Z,1.35
2022-10-29T09:20:42.125Z,1.00
2022-10-29T09:23:12.524Z,1.15
2022-10-29T09:25:51.097Z,2.00
2022-10-29T09:28:39.296Z,0.77
2022-10-29T09:31:09.555Z,0.70
2022-10-29T09:33:37.926Z,1.38
2022-10-29T09:36:14.646Z,0.70
2022-10-29T09:38:52.123Z,0.70
2022-10-29T09:41:22.012Z,1.35
2022-10-29T09:43:55.899Z,0.73
2022-10-29T09:46:52.846Z,1.60
2022-10-29T09:49:49.081Z,0.50
2022-10-29T09:52:19.089Z,0.88
2022-10-29T09:54:49.877Z,0.88
2022-10-29T09:57:28.111Z,0.85
2022-10-29T10:00:29.466Z,0.77
2022-10-29T10:03:14.949Z,1.77
2022-10-29T10:06:03.882Z,0.88
2022-10-29T10:08:32.648Z,0.80
2022-10-29T10:11:07.542Z,0.85
2022-10-29T10:13:37.975Z,1.73
2022-10-29T10:16:06.629Z,1.17
2022-10-29T10:18:41.412Z,1.02
2022-10-29T10:21:11.597Z,1.17
2022-10-29T10:23:50.019Z,1.80
2022-10-29T10:26:34.812Z,0.55
2022-10-29T10:29:17.248Z,0.47
2022-10-29T10:31:46.838Z,1.30
2022-10-29T10:34:18.536Z,1.02
2022-10-29T10:37:11.015Z,1.30
2022-10-29T10:40:00.515Z,1.13
2022-10-29T10:42:34.934Z,1.55
2022-10-29T10:45:24.578Z,1.38
2022-10-29T10:47:55.366Z,0.22
2022-10-29T10:53:02.445Z,0.47
2022-10-29T10:55:37.874Z,0.93
2022-10-29T10:58:13.930Z,0.80
2022-10-29T11:00:47.797Z,0.73
2022-10-29T11:06:00.960Z,0.98
2022-10-29T11:08:34.566Z,0.80
2022-10-29T11:11:17.448Z,0.80
2022-10-29T11:13:44.706Z,1.20
2022-10-29T11:16:30.704Z,1.05
2022-10-29T11:19:07.268Z,1.13
2022-10-29T11:21:46.505Z,1.20
2022-10-29T11:24:30.291Z,1.02
2022-10-29T11:27:08.067Z,1.00
2022-10-29T11:29:55.089Z,0.77
2022-10-29T11:32:38.907Z,1.83
2022-10-29T11:35:13.725Z,0.85
2022-10-29T11:37:53.050Z,1.23
2022-10-29T11:40:34.127Z,0.50
2022-10-29T11:43:05.699Z,1.15
2022-10-29T11:45:48.412Z,1.13
2022-10-29T11:48:41.247Z,1.00
2022-10-29T11:51:32.666Z,0.95
2022-10-29T11:54:37.519Z,0.40
2022-10-29T11:57:32.895Z,1.38
2022-10-29T12:00:12.410Z,1.10
2022-10-29T12:03:35.728Z,1.55
2022-10-29T12:06:15.676Z,0.50
2022-10-29T12:09:02.029Z,0.82
2022-10-29T12:11:45.198Z,1.63
2022-10-29T12:14:18.206Z,0.68
2022-10-29T12:17:09.535Z,1.15
2022-10-29T12:20:02.116Z,1.05
2022-10-29T12:22:35.131Z,1.20
2022-10-29T12:25:26.560Z,1.38
2022-10-29T12:28:11.972Z,0.45
2022-10-29T12:30:47.293Z,0.95
2022-10-29T12:33:25.201Z,0.70
2022-10-29T12:36:18.982Z,0.60
2022-10-29T12:38:55.009Z,0.90
2022-10-29T12:41:31.562Z,0.80
2022-10-29T12:44:13.464Z,1.88
2022-10-29T12:47:23.661Z,1.27
2022-10-29T12:49:51.295Z,0.95
2022-10-29T12:52:24.632Z,1.30
2022-10-29T12:54:53.448Z,0.90
2022-10-29T12:57:28.924Z,1.40
2022-10-29T13:00:16.422Z,0.60
2022-10-29T13:02:44.541Z,1.38
2022-10-29T13:05:14.974Z,0.60
2022-10-29T13:07:45.374Z,1.33
2022-10-29T13:10:22.170Z,0.55
2022-10-29T13:12:58.307Z,1.48
2022-10-29T13:15:34.162Z,0.73
2022-10-29T13:18:17.958Z,0.63
2022-10-29T13:20:52.152Z,1.05
2022-10-29T13:23:27.174Z,1.10
2022-10-29T13:26:08.334Z,1.48
2022-10-29T13:28:35.576Z,1.48
2022-10-29T13:31:02.839Z,0.30
2022-10-29T13:33:30.071Z,1.60
2022-10-29T13:36:01.185Z,0.57
2022-10-29T13:38:52.037Z,0.52
2022-10-29T13:41:37.092Z,0.85
2022-10-29T13:44:17.271Z,1.15
2022-10-29T13:46:56.659Z,0.73
2022-10-29T13:49:26.151Z,0.68
2022-10-29T13:51:59.544Z,0.85
2022-10-29T13:54:50.766Z,0.90
2022-10-29T13:57:25.631Z,1.17
2022-10-29T14:00:07.287Z,0.20
2022-10-29T14:02:43.819Z,0.22
2022-10-29T14:05:11.213Z,1.08
2022-10-29T14:08:18.900Z,0.65
2022-10-29T14:10:50.372Z,0.90
2022-10-29T14:13:40.963Z,1.02
2022-10-29T14:16:13.539Z,0.50
2022-10-29T14:18:50.984Z,0.80
2022-10-29T14:21:22.103Z,0.70
2022-10-29T14:26:24.227Z,0.75
2022-10-29T14:28:54.888Z,0.35
2022-10-29T14:31:25.728Z,0.60
2022-10-29T14:34:00.702Z,0.80
2022-10-29T14:36:37.285Z,0.57
2022-10-29T14:39:37.011Z,0.75
2022-10-29T14:42:45.230Z,0.35
2022-10-29T14:45:25.190Z,0.52
2022-10-29T14:47:55.644Z,0.85
2022-10-29T14:50:26.330Z,1.05
2022-10-29T14:53:01.283Z,1.70
2022-10-29T14:55:37.467Z,1.13
2022-10-29T14:58:20.877Z,1.00
2022-10-29T15:01:13.264Z,1.17
2022-10-29T15:03:46.632Z,0.93
2022-10-29T15:06:25.122Z,1.85
2022-10-29T15:09:00.823Z,0.68
2022-10-29T15:11:47.467Z,1.45
2022-10-29T15:14:37.274Z,0.65
2022-10-29T15:17:31.042Z,2.72
2022-10-29T15:20:03.435Z,0.70
2022-10-29T15:22:41.313Z,1.05
2022-10-29T15:25:17.935Z,0.70
2022-10-29T15:27:48.647Z,1.83
2022-10-29T15:30:28.155Z,2.00
2022-10-29T15:32:59.360Z,2.35
2022-10-29T15:35:28.171Z,2.08
2022-10-29T15:38:01.057Z,1.23
2022-10-29T15:40:28.687Z,1.52
2022-10-29T15:42:56.201Z,2.15
2022-10-29T15:45:23.659Z,2.03
2022-10-29T15:47:56.995Z,1.65
2022-10-29T15:50:48.511Z,0.90
2022-10-29T15:53:19.336Z,2.47
2022-10-29T15:55:52.213Z,0.98
2022-10-29T15:58:28.677Z,1.30
2022-10-29T16:00:55.959Z,2.28
2022-10-29T16:03:26.180Z,1.92
2022-10-29T16:05:59.300Z,1.10
2022-10-29T16:08:33.422Z,1.58
2022-10-29T16:11:02.197Z,1.02
2022-10-29T16:13:33.011Z,1.20
2022-10-29T16:16:01.214Z,2.17
2022-10-29T16:18:30.973Z,2.47
2022-10-29T16:21:00.800Z,2.10
2022-10-29T16:23:28.028Z,2.53
2022-10-29T16:26:01.052Z,2.97
2022-10-29T16:28:31.806Z,2.03
2022-10-29T16:31:03.023Z,3.35
2022-10-29T16:35:57.731Z,2.00
2022-10-29T16:38:31.384Z,3.67
2022-10-29T16:41:02.181Z,3.67
2022-10-29T16:43:29.511Z,1.98
2022-10-29T16:45:58.574Z,2.97
2022-10-29T16:48:30.999Z,2.20
2022-10-29T16:51:04.041Z,2.22
2022-10-29T16:53:31.415Z,1.77
2022-10-29T16:56:01.780Z,3.63
2022-10-29T16:58:29.114Z,2.57
2022-10-29T17:01:05.048Z,2.42
2022-10-29T17:03:32.807Z,2.55
2022-10-29T17:06:08.820Z,3.10
2022-10-29T17:08:37.687Z,5.20
2022-10-29T17:11:08.052Z,3.90
2022-10-29T17:13:38.574Z,1.73
2022-10-29T17:16:08.071Z,3.95
2022-10-29T17:18:38.194Z,4.03
2022-10-29T17:21:05.917Z,4.85
2022-10-29T17:23:33.517Z,4.35
2022-10-29T17:26:01.330Z,4.07
2022-10-29T17:28:28.973Z,4.00
2022-10-29T17:30:56.336Z,6.82
2022-10-29T17:33:23.780Z,5.47
2022-10-29T17:36:05.757Z,3.22
2022-10-29T17:38:35.928Z,6.45
2022-10-29T17:41:07.455Z,4.60
2022-10-29T17:43:34.711Z,4.18
2022-10-29T17:46:04.711Z,5.88
2022-10-29T17:48:32.036Z,4.13
2022-10-29T17:51:01.344Z,4.40
2022-10-29T17:53:30.008Z,4.57
2022-10-29T17:56:00.821Z,6.95
2022-10-29T17:58:28.334Z,4.20
2022-10-29T18:01:03.629Z,4.43
2022-10-29T18:03:34.150Z,6.05
2022-10-29T18:06:02.559Z,3.30
2022-10-29T18:08:34.794Z,4.28
2022-10-29T18:11:10.083Z,4.95
2022-10-29T18:13:41.714Z,3.55
2022-10-29T18:16:11.046Z,3.58
2022-10-29T18:18:54.379Z,3.17
2022-10-29T18:21:27.888Z,5.40
2022-10-29T18:23:55.176Z,3.75
2022-10-29T18:26:36.149Z,5.28
2022-10-29T18:29:07.441Z,4.82
2022-10-29T18:31:36.686Z,6.47
2022-10-29T18:34:06.778Z,5.65
2022-10-29T18:36:35.206Z,5.93
2022-10-29T18:39:04.085Z,4.57
2022-10-29T18:41:31.615Z,7.35
2022-10-29T18:44:01.883Z,6.07
2022-10-29T18:46:29.186Z,6.93
2022-10-29T18:48:56.455Z,5.85
2022-10-29T18:51:27.265Z,8.38
2022-10-29T18:53:55.819Z,8.30
2022-10-29T18:56:27.157Z,6.95
2022-10-29T18:59:00.722Z,7.45
2022-10-29T19:01:30.719Z,5.13
2022-10-29T19:04:00.435Z,6.97
2022-10-29T19:06:31.448Z,6.40
2022-10-29T19:09:05.069Z,6.40
2022-10-29T19:11:32.507Z,7.43
2022-10-29T19:14:03.076Z,7.93
2022-10-29T19:16:31.907Z,7.22
2022-10-29T19:21:41.433Z,4.43
2022-10-29T19:24:14.850Z,6.30
2022-10-29T19:26:44.710Z,5.70
2022-10-29T19:29:15.401Z,3.17
2022-10-29T19:31:44.906Z,3.97
2022-10-29T19:34:12.259Z,6.78
2022-10-29T19:36:39.610Z,2.67
2022-10-29T19:39:07.641Z,6.45
2022-10-29T19:41:35.193Z,4.22
2022-10-29T19:44:03.229Z,6.30
2022-10-29T19:46:30.939Z,4.78
2022-10-29T19:48:58.616Z,3.17
2022-10-29T19:51:26.183Z,2.97
2022-10-29T19:53:53.489Z,4.80
2022-10-29T19:56:21.535Z,4.18
2022-10-29T19:58:51.391Z,3.22
2022-10-29T20:01:19.164Z,2.83
2022-10-29T20:03:47.520Z,3.25
2022-10-29T20:06:15.480Z,1.90
2022-10-29T20:08:43.273Z,2.25
2022-10-29T20:11:10.625Z,3.65
2022-10-29T20:13:38.053Z,3.90
2022-10-29T20:16:15.938Z,2.33
2022-10-29T20:18:43.709Z,4.55
2022-10-29T20:21:12.267Z,2.90
2022-10-29T20:23:39.956Z,1.33
2022-10-29T20:26:07.822Z,3.78
2022-10-29T20:28:35.379Z,2.50
2022-10-29T20:31:17.653Z,3.47
2022-10-29T20:33:52.533Z,3.42
2022-10-29T20:36:20.207Z,3.35
2022-10-29T20:38:49.035Z,2.65
2022-10-29T20:41:17.083Z,3.15
2022-10-29T20:44:01.059Z,3.35
2022-10-29T20:46:29.034Z,3.03
2022-10-29T20:48:56.431Z,3.00
2022-10-29T20:51:24.833Z,2.78
2022-10-29T20:53:52.839Z,2.83
2022-10-29T20:56:24.455Z,4.53
2022-10-29T20:58:52.076Z,2.38
2022-10-29T21:01:21.340Z,4.60
2022-10-29T21:03:49.846Z,3.85
2022-10-29T21:06:17.808Z,4.20
2022-10-29T21:08:46.666Z,3.78
2022-10-29T21:11:15.799Z,3.53
2022-10-29T21:13:43.177Z,2.40
2022-10-29T21:16:15.213Z,4.03
2022-10-29T21:18:52.904Z,1.05
2022-10-29T21:21:20.759Z,2.33
2022-10-29T21:23:51.074Z,1.75
2022-10-29T21:26:23.698Z,2.37
2022-10-29T21:28:52.484Z,1.17
2022-10-29T21:31:21.363Z,1.95
2022-10-29T21:33:50.306Z,2.92
2022-10-29T21:36:17.636Z,3.75
2022-10-29T21:38:44.907Z,1.52
2022-10-29T21:41:12.176Z,3.33
2022-10-29T21:43:39.651Z,1.77
2022-10-29T21:46:07.406Z,3.42
2022-10-29T21:48:34.748Z,2.78
2022-10-29T21:51:07.942Z,1.90
2022-10-29T21:53:38.265Z,2.90
2022-10-29T21:56:08.054Z,3.33
2022-10-29T21:58:35.406Z,2.40
2022-10-29T22:01:07.126Z,1.38
2022-10-29T22:03:36.224Z,1.83
2022-10-29T22:06:05.601Z,1.15
2022-10-29T22:08:34.151Z,3.00
2022-10-29T22:11:01.924Z,1.52
2022-10-29T22:13:30.741Z,1.67
2022-10-29T22:15:58.333Z,1.45
2022-10-29T22:18:26.789Z,1.52
2022-10-29T22:21:13.895Z,2.30
2022-10-29T22:23:53.495Z,1.60
2022-10-29T22:26:24.840Z,1.50
2022-10-29T22:28:53.451Z,3.17
2022-10-29T22:31:22.483Z,0.70
2022-10-29T22:33:50.549Z,1.63
2022-10-29T22:36:21.086Z,1.38
2022-10-29T22:39:00.156Z,1.50
2022-10-29T22:41:28.573Z,2.15
2022-10-29T22:43:56.815Z,5.03
2022-10-29T22:46:27.844Z,2.03
2022-10-29T22:48:55.972Z,2.05
2022-10-29T22:51:28.623Z,2.53
2022-10-29T22:53:56.536Z,2.05
2022-10-29T22:56:25.490Z,2.40
2022-10-29T22:58:52.895Z,3.55
2022-10-29T23:01:22.800Z,2.03
2022-10-29T23:03:50.769Z,3.78
2022-10-29T23:06:20.228Z,1.25
2022-10-29T23:08:50.465Z,2.65
2022-10-29T23:11:20.712Z,1.98
2022-10-29T23:13:53.157Z,1.42
2022-10-29T23:16:21.590Z,1.63
2022-10-29T23:18:50.365Z,2.80
2022-10-29T23:21:18.094Z,1.45
2022-10-29T23:23:46.093Z,2.88
2022-10-29T23:26:13.644Z,1.50
2022-10-29T23:28:41.397Z,1.83
2022-10-29T23:31:15.129Z,1.10
2022-10-29T23:33:47.209Z,1.52
2022-10-29T23:36:16.625Z,1.10
2022-10-29T23:38:44.033Z,3.10
2022-10-29T23:41:11.911Z,0.82
2022-10-29T23:43:39.297Z,2.17
2022-10-29T23:46:06.974Z,1.65
2022-10-29T23:48:34.251Z,2.35
2022-10-29T23:51:01.616Z,1.50
2022-10-29T23:53:28.923Z,2.13
2022-10-29T23:55:56.377Z,1.83
2022-10-29T23:58:23.759Z,1.48
